Phoenix, Arizona
Traffic Map
Current Weather Conditions
Phoenix, Arizona
Broken Clouds
Broken Clouds
33°
Feels Like: 34°
Wind Chill: 33° Ceiling: 25000
Heat Index: 34° Visibility: 10mi
Dew Point: 18° Wind: 22mph
Humidity: 39% Direction: 170° (S)
Pressure: 29.84in Gusts: 29mph
Raw Report DataKPHX 060051Z 17019G25KT 10SM FEW090 SCT140 SCT190 BKN250 33/18 A2984 RMK AO2 PK WND 18029/2357 SLP083 CB DSNT NW T03330178 $
Traffic Incident Summary
Active as of:
Severity:
Category:
InformationThere was an issue retrieving the traffic information for this location. Please try a different location or try again shortly.
Advertisements
Track Severe Weather on mobile